createdAt,value
2022-12-16T00:00:47.726Z,37.03
2022-12-16T00:03:15.465Z,42.28
2022-12-16T00:05:44.714Z,41.10
2022-12-16T00:08:13.791Z,36.78
2022-12-16T00:10:54.792Z,42.65
2022-12-16T00:13:22.702Z,36.42
2022-12-16T00:15:50.368Z,39.13
2022-12-16T00:18:19.979Z,39.42
2022-12-16T00:20:48.697Z,45.40
2022-12-16T00:23:18.312Z,40.03
2022-12-16T00:25:47.032Z,46.47
2022-12-16T00:28:16.933Z,45.67
2022-12-16T00:30:45.615Z,44.45
2022-12-16T00:33:13.544Z,40.88
2022-12-16T00:35:44.624Z,43.20
2022-12-16T00:38:13.773Z,39.38
2022-12-16T00:40:43.116Z,47.35
2022-12-16T00:43:11.134Z,40.50
2022-12-16T00:45:39.324Z,43.03
2022-12-16T00:48:08.203Z,43.15
2022-12-16T00:50:36.470Z,43.72
2022-12-16T00:53:04.733Z,45.22
2022-12-16T00:55:32.480Z,45.60
2022-12-16T00:58:01.475Z,41.50
2022-12-16T01:00:29.628Z,44.78
2022-12-16T01:02:57.442Z,44.72
2022-12-16T01:05:26.945Z,42.35
2022-12-16T01:07:55.252Z,44.58
2022-12-16T01:10:23.309Z,49.50
2022-12-16T01:12:51.414Z,50.63
2022-12-16T01:15:20.722Z,50.65
2022-12-16T01:17:48.386Z,50.63
2022-12-16T01:20:16.024Z,51.50
2022-12-16T01:22:43.708Z,42.70
2022-12-16T01:25:12.873Z,45.72
2022-12-16T01:27:40.799Z,48.10
2022-12-16T01:30:10.092Z,45.90
2022-12-16T01:32:39.191Z,47.45
2022-12-16T01:35:18.024Z,47.65
2022-12-16T01:37:51.229Z,42.90
2022-12-16T01:40:22.061Z,40.22
2022-12-16T01:42:49.859Z,40.25
2022-12-16T01:45:38.678Z,43.60
2022-12-16T01:48:21.098Z,41.10
2022-12-16T01:50:50.254Z,44.45
2022-12-16T01:53:18.033Z,41.55
2022-12-16T01:55:51.553Z,44.60
2022-12-16T01:58:23.447Z,40.58
2022-12-16T02:00:51.407Z,41.25
2022-12-16T02:03:21.109Z,44.92
2022-12-16T02:05:50.204Z,41.42
2022-12-16T02:08:19.338Z,44.45
2022-12-16T02:10:59.449Z,37.53
2022-12-16T02:13:40.125Z,38.53
2022-12-16T02:16:17.425Z,43.67
2022-12-16T02:18:55.501Z,40.20
2022-12-16T02:21:40.484Z,39.80
2022-12-16T02:24:48.195Z,40.20
2022-12-16T02:27:46.901Z,39.42
2022-12-16T02:30:42.000Z,38.75
2022-12-16T02:33:22.207Z,43.80
2022-12-16T02:35:56.617Z,47.08
2022-12-16T02:38:31.760Z,42.72
2022-12-16T02:41:04.312Z,46.25
2022-12-16T02:43:51.465Z,47.83
2022-12-16T02:46:24.884Z,47.90
2022-12-16T02:48:52.728Z,39.30
2022-12-16T02:51:21.278Z,44.03
2022-12-16T02:53:51.463Z,42.42
2022-12-16T02:56:30.386Z,39.83
2022-12-16T02:59:11.652Z,42.60
2022-12-16T03:01:49.194Z,36.38
2022-12-16T03:04:21.931Z,35.35
2022-12-16T03:06:52.365Z,35.45
2022-12-16T03:09:25.214Z,37.30
2022-12-16T03:11:55.384Z,35.83
2022-12-16T03:14:26.585Z,40.00
2022-12-16T03:16:56.623Z,38.00
2022-12-16T03:19:26.006Z,34.15
2022-12-16T03:22:00.974Z,37.90
2022-12-16T03:24:29.785Z,36.30
2022-12-16T03:27:07.162Z,35.38
2022-12-16T03:29:41.736Z,38.50
2022-12-16T03:32:15.452Z,37.83
2022-12-16T03:34:49.437Z,39.50
2022-12-16T03:37:17.273Z,39.92
2022-12-16T03:39:49.716Z,43.35
2022-12-16T03:42:18.030Z,43.97
2022-12-16T03:44:47.352Z,37.65
2022-12-16T03:47:23.057Z,42.50
2022-12-16T03:49:51.555Z,43.05
2022-12-16T03:52:19.206Z,44.88
2022-12-16T03:54:46.884Z,42.25
2022-12-16T03:57:15.672Z,43.38
2022-12-16T03:59:43.641Z,45.80
2022-12-16T04:02:11.647Z,42.03
2022-12-16T04:04:40.787Z,47.42
2022-12-16T04:07:24.706Z,71.95
2022-12-16T04:09:53.502Z,62.50
2022-12-16T04:12:39.044Z,59.80
2022-12-16T04:15:33.724Z,65.30
2022-12-16T04:18:18.726Z,78.95
2022-12-16T04:21:10.801Z,82.47
2022-12-16T04:24:05.493Z,94.43
2022-12-16T04:26:53.153Z,71.35
2022-12-16T04:29:21.309Z,61.92
2022-12-16T04:31:49.137Z,75.72
2022-12-16T04:34:29.324Z,92.65
2022-12-16T04:37:18.015Z,107.45
2022-12-16T04:40:12.253Z,81.22
2022-12-16T04:42:57.500Z,91.65
2022-12-16T04:45:42.876Z,107.05
2022-12-16T04:48:28.144Z,110.25
2022-12-16T04:51:13.483Z,132.48
2022-12-16T04:53:59.890Z,133.68
2022-12-16T04:56:45.306Z,113.18
2022-12-16T04:59:30.504Z,101.97
2022-12-16T05:02:16.040Z,72.15
2022-12-16T05:05:01.201Z,63.28
2022-12-16T05:07:46.530Z,65.28
2022-12-16T05:10:33.001Z,61.65
2022-12-16T05:13:18.178Z,68.68
2022-12-16T05:16:03.568Z,61.78
2022-12-16T05:18:48.970Z,63.08
2022-12-16T05:21:34.280Z,66.20
2022-12-16T05:24:19.587Z,66.82
2022-12-16T05:27:20.582Z,68.40
2022-12-16T05:30:17.029Z,69.45
2022-12-16T05:33:13.912Z,68.45
2022-12-16T05:35:58.921Z,72.03
2022-12-16T05:38:44.242Z,69.88
2022-12-16T05:41:29.541Z,67.90
2022-12-16T05:44:16.110Z,71.40
2022-12-16T05:47:01.714Z,67.45
2022-12-16T05:49:46.874Z,74.38
2022-12-16T05:52:32.095Z,71.03
2022-12-16T05:55:17.450Z,71.40
2022-12-16T05:58:02.707Z,74.20
2022-12-16T06:00:49.311Z,76.03
2022-12-16T06:03:34.972Z,75.65
2022-12-16T06:06:20.255Z,69.50
2022-12-16T06:09:05.534Z,77.78
2022-12-16T06:11:50.766Z,76.40
2022-12-16T06:14:36.046Z,74.78
2022-12-16T06:17:22.740Z,86.30
2022-12-16T06:20:08.054Z,71.32
2022-12-16T06:22:53.448Z,77.90
2022-12-16T06:25:38.661Z,79.80
2022-12-16T06:28:24.016Z,77.00
2022-12-16T06:31:09.236Z,75.53
2022-12-16T06:33:55.870Z,84.60
2022-12-16T06:36:41.334Z,83.07
2022-12-16T06:39:26.501Z,85.28
2022-12-16T06:42:11.976Z,80.80
2022-12-16T06:44:57.253Z,78.60
2022-12-16T06:47:42.578Z,84.97
2022-12-16T06:50:25.666Z,82.20
2022-12-16T06:53:10.584Z,87.43
2022-12-16T06:55:55.941Z,91.32
2022-12-16T06:58:43.449Z,94.53
2022-12-16T07:01:28.655Z,86.47
2022-12-16T07:04:13.724Z,82.80
2022-12-16T07:07:00.305Z,89.97
2022-12-16T07:09:45.710Z,89.70
2022-12-16T07:12:30.924Z,93.00
2022-12-16T07:15:16.146Z,91.70
2022-12-16T07:18:03.445Z,98.85
2022-12-16T07:20:48.737Z,100.82
2022-12-16T07:23:35.956Z,96.18
2022-12-16T07:26:21.290Z,93.90
2022-12-16T07:29:06.587Z,95.10
2022-12-16T07:31:51.040Z,100.53
2022-12-16T07:34:40.800Z,101.97
2022-12-16T07:37:28.282Z,97.07
2022-12-16T07:40:14.903Z,102.07
2022-12-16T07:43:00.242Z,103.90
2022-12-16T07:45:46.178Z,103.25
2022-12-16T07:48:31.552Z,103.38
2022-12-16T07:51:16.732Z,103.25
2022-12-16T07:54:02.097Z,100.75
2022-12-16T07:56:47.863Z,104.03
2022-12-16T08:02:26.125Z,119.32
2022-12-16T08:05:11.662Z,94.45
2022-12-16T08:07:58.329Z,106.00
2022-12-16T08:10:43.421Z,102.32
2022-12-16T08:13:44.402Z,97.72
2022-12-16T08:16:29.447Z,92.57
2022-12-16T08:19:15.160Z,88.40
2022-12-16T08:22:00.600Z,94.80
2022-12-16T08:25:00.453Z,88.25
2022-12-16T08:27:45.698Z,90.20
2022-12-16T08:30:32.496Z,93.45
2022-12-16T08:33:19.514Z,87.68
2022-12-16T08:36:05.293Z,86.93
2022-12-16T08:38:50.632Z,85.32
2022-12-16T08:44:21.388Z,89.72
2022-12-16T08:47:08.265Z,86.03
2022-12-16T08:50:05.645Z,87.32
2022-12-16T08:52:50.631Z,82.30
2022-12-16T08:55:35.832Z,82.57
2022-12-16T08:58:21.117Z,78.72
2022-12-16T09:01:07.691Z,76.47
2022-12-16T09:03:54.675Z,86.15
2022-12-16T09:06:40.941Z,77.78
2022-12-16T09:09:26.370Z,90.90
2022-12-16T09:12:20.112Z,86.70
2022-12-16T09:15:05.348Z,76.88
2022-12-16T09:17:50.702Z,78.68
2022-12-16T09:23:23.122Z,78.82
2022-12-16T09:26:08.442Z,69.45
2022-12-16T09:31:41.527Z,72.30
2022-12-16T09:34:26.719Z,76.70
2022-12-16T09:37:13.467Z,68.93
2022-12-16T09:39:58.723Z,74.82
2022-12-16T09:42:55.498Z,73.13
2022-12-16T09:45:51.073Z,70.43
2022-12-16T09:48:45.944Z,72.20
2022-12-16T09:51:32.836Z,67.85
2022-12-16T09:54:21.512Z,71.47
2022-12-16T09:57:07.232Z,72.88
2022-12-16T09:59:56.005Z,72.18
2022-12-16T10:02:43.556Z,80.00
2022-12-16T10:05:31.755Z,74.80
2022-12-16T10:08:25.248Z,84.63
2022-12-16T10:11:19.122Z,81.53
2022-12-16T10:14:19.416Z,77.80
2022-12-16T10:17:11.051Z,74.35
2022-12-16T10:20:09.506Z,76.47
2022-12-16T10:23:01.822Z,81.47
2022-12-16T10:25:51.722Z,73.05
2022-12-16T10:28:53.904Z,75.80
2022-12-16T10:31:40.914Z,75.85
2022-12-16T10:34:32.074Z,79.57
2022-12-16T10:37:26.360Z,81.78
2022-12-16T10:40:17.068Z,81.90
2022-12-16T10:43:08.334Z,74.60
2022-12-16T10:45:59.030Z,76.10
2022-12-16T10:48:55.127Z,77.13
2022-12-16T10:51:43.062Z,74.32
2022-12-16T10:54:43.045Z,81.43
2022-12-16T10:57:33.662Z,80.82
2022-12-16T11:00:31.692Z,74.20
2022-12-16T11:03:35.754Z,78.65
2022-12-16T11:06:22.085Z,70.32
2022-12-16T11:09:07.489Z,80.75
2022-12-16T11:11:52.700Z,79.32
2022-12-16T11:15:05.621Z,82.50
2022-12-16T11:17:48.191Z,76.47
2022-12-16T11:20:37.654Z,83.45
2022-12-16T11:23:37.568Z,87.70
2022-12-16T11:26:27.745Z,83.07
2022-12-16T11:29:24.563Z,84.40
2022-12-16T11:32:16.046Z,87.15
2022-12-16T11:35:04.928Z,143.55
2022-12-16T11:37:53.984Z,220.80
2022-12-16T11:40:40.350Z,115.32
2022-12-16T11:43:27.566Z,93.22
2022-12-16T11:46:13.946Z,96.38
2022-12-16T11:49:02.532Z,84.32
2022-12-16T11:51:51.377Z,85.25
2022-12-16T11:54:57.864Z,86.15
2022-12-16T11:57:46.346Z,78.30
2022-12-16T12:00:34.531Z,83.35
2022-12-16T12:03:24.817Z,80.28
2022-12-16T12:06:23.077Z,80.97
2022-12-16T12:09:17.599Z,77.78
2022-12-16T12:12:11.250Z,86.20
2022-12-16T12:15:05.578Z,86.63
2022-12-16T12:17:59.389Z,82.47
2022-12-16T12:21:00.258Z,88.35
2022-12-16T12:23:58.678Z,87.78
2022-12-16T12:26:49.499Z,90.40
2022-12-16T12:29:50.515Z,86.22
2022-12-16T12:32:38.683Z,87.25
2022-12-16T12:35:37.074Z,91.60
2022-12-16T12:38:30.018Z,82.63
2022-12-16T12:41:25.193Z,83.93
2022-12-16T12:44:18.237Z,83.28
2022-12-16T12:47:11.733Z,88.18
2022-12-16T12:50:02.433Z,85.45
2022-12-16T12:53:17.112Z,81.63
2022-12-16T12:56:07.606Z,85.22
2022-12-16T12:58:56.581Z,78.68
2022-12-16T13:01:48.187Z,76.10
2022-12-16T13:04:38.502Z,79.10
2022-12-16T13:07:25.309Z,79.50
2022-12-16T13:10:46.082Z,76.80
2022-12-16T13:13:50.230Z,83.82
2022-12-16T13:17:10.824Z,80.65
2022-12-16T13:20:11.025Z,78.07
2022-12-16T13:23:05.314Z,77.82
2022-12-16T13:26:08.311Z,80.65
2022-12-16T13:28:56.139Z,79.68
2022-12-16T13:31:43.032Z,82.13
2022-12-16T13:34:43.960Z,84.60
2022-12-16T13:37:44.539Z,79.18
2022-12-16T13:40:36.442Z,71.15
2022-12-16T13:43:23.813Z,76.80
2022-12-16T13:46:34.381Z,82.07
2022-12-16T13:49:55.449Z,75.43
2022-12-16T13:52:54.374Z,77.13
2022-12-16T13:55:46.715Z,81.65
2022-12-16T13:58:40.235Z,81.28
2022-12-16T14:01:30.318Z,80.88
2022-12-16T14:04:18.267Z,85.80
2022-12-16T14:07:04.445Z,80.78
2022-12-16T14:09:54.487Z,78.00
2022-12-16T14:13:02.116Z,77.78
2022-12-16T14:15:53.579Z,79.25
2022-12-16T14:18:50.060Z,74.22
2022-12-16T14:21:43.977Z,73.35
2022-12-16T14:24:39.627Z,74.50
2022-12-16T14:27:35.018Z,81.68
2022-12-16T14:30:21.736Z,73.18
2022-12-16T14:33:10.000Z,74.60
2022-12-16T14:35:55.352Z,76.20
2022-12-16T14:38:44.023Z,70.07
2022-12-16T14:41:30.790Z,69.88
2022-12-16T14:44:26.242Z,69.43
2022-12-16T14:47:11.448Z,71.45
2022-12-16T14:50:08.368Z,70.70
2022-12-16T14:52:53.490Z,76.95
2022-12-16T14:55:45.729Z,73.78
2022-12-16T14:58:32.693Z,73.90
2022-12-16T15:01:24.096Z,79.47
2022-12-16T15:04:09.718Z,77.90
2022-12-16T15:09:46.830Z,68.63
2022-12-16T15:12:34.375Z,75.38
2022-12-16T15:15:23.742Z,75.25
2022-12-16T15:18:13.726Z,67.47
2022-12-16T15:21:09.890Z,73.47
2022-12-16T15:26:44.390Z,73.82
2022-12-16T15:29:49.156Z,73.38
2022-12-16T15:32:48.320Z,72.50
2022-12-16T15:35:45.981Z,82.90
2022-12-16T15:38:42.005Z,77.25
2022-12-16T15:41:39.355Z,68.97
2022-12-16T15:44:24.871Z,65.18
2022-12-16T15:47:10.483Z,65.57
2022-12-16T15:50:03.502Z,68.90
2022-12-16T15:52:54.253Z,65.97
2022-12-16T15:56:04.323Z,66.03
2022-12-16T15:58:52.469Z,57.08
2022-12-16T16:01:40.193Z,58.97
2022-12-16T16:04:37.495Z,59.45
2022-12-16T16:07:22.694Z,52.45
2022-12-16T16:10:09.418Z,56.70
2022-12-16T16:12:55.102Z,52.60
2022-12-16T16:18:28.518Z,54.83
2022-12-16T16:21:13.765Z,55.67
2022-12-16T16:23:59.204Z,53.67
2022-12-16T16:26:47.113Z,58.72
2022-12-16T16:29:32.401Z,63.30
2022-12-16T16:32:17.785Z,62.72
2022-12-16T16:35:03.079Z,60.20
2022-12-16T16:37:48.357Z,60.70
2022-12-16T16:40:47.486Z,61.28
2022-12-16T16:43:30.925Z,60.40
2022-12-16T16:46:16.623Z,58.95
2022-12-16T16:49:01.672Z,58.42
2022-12-16T16:51:47.192Z,60.60
2022-12-16T16:54:32.450Z,55.22
2022-12-16T16:57:34.142Z,54.28
2022-12-16T17:00:21.187Z,54.08
2022-12-16T17:03:06.714Z,61.63
2022-12-16T17:06:00.420Z,62.28
2022-12-16T17:08:45.836Z,61.97
2022-12-16T17:11:36.883Z,58.47
2022-12-16T17:14:22.744Z,61.33
2022-12-16T17:17:09.282Z,63.53
2022-12-16T17:19:54.595Z,72.75
2022-12-16T17:22:39.973Z,64.28
2022-12-16T17:25:26.249Z,65.05
2022-12-16T17:28:11.538Z,63.55
2022-12-16T17:30:56.857Z,67.22
2022-12-16T17:33:43.711Z,69.80
2022-12-16T17:36:32.066Z,69.28
2022-12-16T17:39:17.503Z,63.97
2022-12-16T17:42:03.454Z,69.88
2022-12-16T17:44:48.563Z,66.18
2022-12-16T17:47:34.292Z,65.65
2022-12-16T17:53:06.208Z,66.13
2022-12-16T17:55:52.492Z,73.93
2022-12-16T17:58:37.889Z,63.80
2022-12-16T18:01:24.862Z,69.47
2022-12-16T18:04:10.197Z,67.30
2022-12-16T18:06:56.630Z,73.93
2022-12-16T18:09:41.962Z,71.50
2022-12-16T18:12:27.125Z,74.18
2022-12-16T18:15:12.490Z,81.85
2022-12-16T18:17:57.915Z,73.82
2022-12-16T18:20:43.143Z,74.78
2022-12-16T18:23:29.906Z,77.70
2022-12-16T18:26:16.867Z,70.95
2022-12-16T18:29:02.263Z,73.75
2022-12-16T18:31:47.633Z,85.68
2022-12-16T18:34:33.252Z,80.65
2022-12-16T18:37:18.674Z,75.40
2022-12-16T18:40:07.574Z,79.50
2022-12-16T18:42:52.760Z,82.80
2022-12-16T18:45:38.329Z,76.15
2022-12-16T18:48:23.948Z,85.70
2022-12-16T18:51:13.394Z,88.40
2022-12-16T18:53:58.664Z,79.53
2022-12-16T18:56:45.545Z,81.60
2022-12-16T18:59:31.205Z,80.22
2022-12-16T19:02:16.674Z,82.88
2022-12-16T19:05:01.701Z,78.10
2022-12-16T19:07:46.914Z,73.85
2022-12-16T19:10:32.371Z,70.03
2022-12-16T19:13:19.001Z,65.25
2022-12-16T19:16:11.795Z,65.85
2022-12-16T19:18:57.225Z,68.20
2022-12-16T19:21:46.908Z,71.10
2022-12-16T19:24:35.242Z,74.95
2022-12-16T19:27:20.515Z,64.25
2022-12-16T19:30:15.427Z,62.22
2022-12-16T19:33:00.807Z,68.07
2022-12-16T19:35:46.244Z,63.60
2022-12-16T19:38:37.302Z,70.03
2022-12-16T19:41:22.648Z,72.72
2022-12-16T19:44:08.081Z,73.60
2022-12-16T19:46:56.196Z,73.68
2022-12-16T19:49:44.379Z,74.38
2022-12-16T19:52:30.455Z,63.58
2022-12-16T19:55:17.611Z,75.45
2022-12-16T19:58:03.204Z,72.80
2022-12-16T20:00:48.708Z,72.47
2022-12-16T20:03:36.233Z,77.05
2022-12-16T20:06:23.142Z,77.28
2022-12-16T20:09:08.513Z,72.03
2022-12-16T20:11:54.755Z,83.35
2022-12-16T20:14:41.404Z,86.22
2022-12-16T20:17:23.658Z,82.78
2022-12-16T20:20:10.252Z,71.80
2022-12-16T20:22:56.232Z,81.88
2022-12-16T20:25:41.356Z,151.98
2022-12-16T20:28:26.725Z,135.57
2022-12-16T20:31:11.933Z,98.50
2022-12-16T20:37:05.376Z,97.03
2022-12-16T20:42:56.305Z,99.78
2022-12-16T20:45:43.262Z,129.57
2022-12-16T20:48:32.881Z,106.63
2022-12-16T20:54:30.860Z,79.50
2022-12-16T20:57:15.996Z,88.28
2022-12-16T21:00:01.425Z,80.55
2022-12-16T21:02:46.665Z,79.88
2022-12-16T21:05:32.277Z,80.15
2022-12-16T21:08:17.595Z,83.55
2022-12-16T21:11:04.096Z,85.22
2022-12-16T21:13:49.778Z,84.82
2022-12-16T21:16:35.270Z,82.97
2022-12-16T21:19:20.563Z,84.03
2022-12-16T21:22:05.888Z,77.43
2022-12-16T21:24:51.782Z,76.78
2022-12-16T21:27:38.243Z,79.05
2022-12-16T21:30:24.801Z,76.70
2022-12-16T21:33:10.171Z,81.00
2022-12-16T21:39:06.381Z,76.03
2022-12-16T21:41:51.678Z,76.03
2022-12-16T21:44:38.140Z,72.63
2022-12-16T21:47:23.491Z,74.03
2022-12-16T21:50:08.991Z,69.80
2022-12-16T21:52:54.789Z,74.03
2022-12-16T21:55:41.491Z,69.63
2022-12-16T21:58:28.883Z,72.85
2022-12-16T22:01:16.905Z,73.97
2022-12-16T22:04:02.192Z,78.88
2022-12-16T22:06:49.095Z,78.57
2022-12-16T22:09:58.329Z,79.95
2022-12-16T22:12:43.628Z,76.68
2022-12-16T22:15:29.104Z,75.90
2022-12-16T22:18:15.440Z,81.18
2022-12-16T22:21:00.919Z,84.38
2022-12-16T22:23:47.183Z,81.63
2022-12-16T22:26:32.412Z,77.65
2022-12-16T22:29:17.783Z,81.28
2022-12-16T22:32:03.075Z,75.00
2022-12-16T22:34:49.791Z,79.57
2022-12-16T22:36:21.245Z,228.82
2022-12-16T22:37:35.121Z,70.13
2022-12-16T22:40:20.384Z,67.40
2022-12-16T22:43:06.453Z,67.57
2022-12-16T22:45:54.068Z,61.22
2022-12-16T22:48:41.569Z,63.63
2022-12-16T22:51:30.137Z,58.47
2022-12-16T22:54:18.598Z,66.40
2022-12-16T23:03:20.983Z,62.63
2022-12-16T23:06:06.702Z,60.72
2022-12-16T23:11:39.694Z,62.85
2022-12-16T23:14:42.981Z,56.92
2022-12-16T23:17:28.929Z,58.42
2022-12-16T23:23:01.004Z,61.75
2022-12-16T23:25:46.312Z,62.45
2022-12-16T23:28:33.446Z,57.70
2022-12-16T23:31:18.893Z,56.25
2022-12-16T23:34:00.492Z,58.28
2022-12-16T23:36:47.041Z,57.35
2022-12-16T23:39:35.402Z,51.00
2022-12-16T23:42:20.656Z,54.58
2022-12-16T23:45:05.905Z,56.97
2022-12-16T23:47:51.352Z,55.40
2022-12-16T23:50:37.330Z,52.05
2022-12-16T23:53:25.301Z,58.88
2022-12-16T23:56:13.007Z,56.83
2022-12-16T23:58:58.360Z,51.47
